Junction City, OR (97448)

3:33 AM PST on February 11, 2016 (GMT -0800)
tamarack st | | Change Station
CLOSE
Current Station
Personal Weather Station
Location: Junction City, OR
Elevation: 322 ft
Nearby Weather Stations

Elev 322 ft 44.22 °N, 123.22 °W | Updated 11 minutes ago

Overcast
Overcast
49.5 °F
Feels Like 50 °F
N
0.0
Wind Variable Wind from WNW

Today
High -- | Low -- °F
--% Chance of Precip.
Yesterday
High -- | Low -- °F
Precip. -- in
Pressure 30.16 in
Visibility 10.0 miles
Clouds Overcast 9500 ft
Windchill 50 °F
Dew Point 49 °F
Humidity 99%
Rainfall 0.00 in
Snow Depth Not available.
7:18 AM 5:36 PM
Waxing Crescent, 11% visible
METAR KEUG 111054Z AUTO 00000KT 10SM OVC095 10/08 A3016 RMK AO2 SLP213 T01000083 TSNO
Pressure 30.16 in
Visibility 10.0 miles
Clouds Overcast 9500 ft
Windchill 50 °F
Dew Point 49 °F
Humidity 99%
Rainfall 0.00 in
Snow Depth Not available.
7:18 AM 5:36 PM
Waxing Crescent, 11% visible
METAR KEUG 111054Z AUTO 00000KT 10SM OVC095 10/08 A3016 RMK AO2 SLP213 T01000083 TSNO

10-Day Weather Forecast

Almanac

Astronomy

Feb. 11, 2016 Rise Set
Actual Time
Civil Twilight
Nautical Twilight
Astronomical Twilight
Moon
Length of Visible Light
Length of Day
Tomorrow will be .
, % of the Moon is Illuminated

Today's Extremes

State Highs State Lows

Community

WunderPhotos

Upload Photos

1,892,030 photos uploaded!

WunderBlog® & News

Nearby

Air Quality

  Air Quality AQ Index Pollutant
Not available.

Snow Depth

Station Depth Elevation

Earthquake Activity

City Distance Mag. Time & Date
Minimum magnitude displayed is 2.5.

Coastal Water Temperatures

Place Temperature

Stations

Nearby Weather Stations

Station Location Temp. Windchill Dew Point Humidity Wind Precip. Elev Updated Type
                   

Watches & Warnings

There are currently no watches in effect.